sensor_id;sensor_type;location;lat;lon;timestamp;P1;durP1;ratioP1;P2;durP2;ratioP2
18334;SDS011;9293;49.524;10.964;2022-11-15T00:02:22;15.57;;;10.07;;
18334;SDS011;9293;49.524;10.964;2022-11-15T00:05:09;17.15;;;11.88;;
18334;SDS011;9293;49.524;10.964;2022-11-15T00:07:56;18.85;;;12.68;;
18334;SDS011;9293;49.524;10.964;2022-11-15T00:10:43;16.85;;;12.25;;
18334;SDS011;9293;49.524;10.964;2022-11-15T00:13:39;17.63;;;12.30;;
18334;SDS011;9293;49.524;10.964;2022-11-15T00:16:29;16.10;;;12.13;;
18334;SDS011;9293;49.524;10.964;2022-11-15T00:19:16;16.92;;;12.07;;
18334;SDS011;9293;49.524;10.964;2022-11-15T00:22:02;16.92;;;12.25;;
18334;SDS011;9293;49.524;10.964;2022-11-15T00:24:49;14.40;;;11.27;;
18334;SDS011;9293;49.524;10.964;2022-11-15T00:27:35;15.55;;;11.02;;
18334;SDS011;9293;49.524;10.964;2022-11-15T00:30:22;17.45;;;11.00;;
18334;SDS011;9293;49.524;10.964;2022-11-15T00:33:08;15.82;;;11.05;;
18334;SDS011;9293;49.524;10.964;2022-11-15T00:36:05;13.98;;;10.48;;
18334;SDS011;9293;49.524;10.964;2022-11-15T00:38:54;13.48;;;10.93;;
18334;SDS011;9293;49.524;10.964;2022-11-15T00:41:41;14.15;;;9.50;;
18334;SDS011;9293;49.524;10.964;2022-11-15T00:44:27;12.60;;;9.70;;
18334;SDS011;9293;49.524;10.964;2022-11-15T00:47:14;16.02;;;9.98;;
18334;SDS011;9293;49.524;10.964;2022-11-15T00:50:00;13.27;;;8.90;;
18334;SDS011;9293;49.524;10.964;2022-11-15T00:52:47;13.68;;;9.32;;
18334;SDS011;9293;49.524;10.964;2022-11-15T00:55:37;13.88;;;9.90;;
18334;SDS011;9293;49.524;10.964;2022-11-15T00:58:23;14.68;;;11.40;;
18334;SDS011;9293;49.524;10.964;2022-11-15T01:01:11;12.02;;;10.02;;
18334;SDS011;9293;49.524;10.964;2022-11-15T01:03:59;14.02;;;10.88;;
18334;SDS011;9293;49.524;10.964;2022-11-15T01:06:45;14.70;;;10.90;;
18334;SDS011;9293;49.524;10.964;2022-11-15T01:09:32;17.40;;;10.93;;
18334;SDS011;9293;49.524;10.964;2022-11-15T01:12:18;13.15;;;10.55;;
18334;SDS011;9293;49.524;10.964;2022-11-15T01:15:05;13.57;;;10.50;;
18334;SDS011;9293;49.524;10.964;2022-11-15T01:17:52;14.65;;;9.85;;
18334;SDS011;9293;49.524;10.964;2022-11-15T01:20:39;13.75;;;10.32;;
18334;SDS011;9293;49.524;10.964;2022-11-15T01:23:28;15.73;;;9.82;;
18334;SDS011;9293;49.524;10.964;2022-11-15T01:26:15;13.75;;;10.75;;
18334;SDS011;9293;49.524;10.964;2022-11-15T01:29:02;13.60;;;10.57;;
18334;SDS011;9293;49.524;10.964;2022-11-15T01:31:48;14.13;;;10.35;;
18334;SDS011;9293;49.524;10.964;2022-11-15T01:34:35;12.73;;;9.43;;
18334;SDS011;9293;49.524;10.964;2022-11-15T01:37:21;11.48;;;8.27;;
18334;SDS011;9293;49.524;10.964;2022-11-15T01:40:08;11.50;;;9.55;;
18334;SDS011;9293;49.524;10.964;2022-11-15T01:42:55;12.52;;;8.13;;
18334;SDS011;9293;49.524;10.964;2022-11-15T01:45:42;11.52;;;8.00;;
18334;SDS011;9293;49.524;10.964;2022-11-15T01:48:31;12.05;;;8.32;;
18334;SDS011;9293;49.524;10.964;2022-11-15T01:51:20;9.40;;;7.68;;
18334;SDS011;9293;49.524;10.964;2022-11-15T01:54:12;12.75;;;8.02;;
18334;SDS011;9293;49.524;10.964;2022-11-15T01:57:06;10.73;;;8.07;;
18334;SDS011;9293;49.524;10.964;2022-11-15T01:59:54;25.60;;;18.15;;
18334;SDS011;9293;49.524;10.964;2022-11-15T02:02:41;16.52;;;12.20;;
18334;SDS011;9293;49.524;10.964;2022-11-15T02:05:29;15.07;;;9.82;;
18334;SDS011;9293;49.524;10.964;2022-11-15T02:08:17;14.60;;;10.30;;
18334;SDS011;9293;49.524;10.964;2022-11-15T02:11:08;12.73;;;9.63;;
18334;SDS011;9293;49.524;10.964;2022-11-15T02:13:55;12.68;;;9.95;;
18334;SDS011;9293;49.524;10.964;2022-11-15T02:19:52;13.10;;;10.40;;
18334;SDS011;9293;49.524;10.964;2022-11-15T02:32:50;12.73;;;9.90;;
18334;SDS011;9293;49.524;10.964;2022-11-15T02:44:32;11.43;;;9.10;;
18334;SDS011;9293;49.524;10.964;2022-11-15T02:47:25;13.70;;;9.95;;
18334;SDS011;9293;49.524;10.964;2022-11-15T02:50:17;10.88;;;8.38;;
18334;SDS011;9293;49.524;10.964;2022-11-15T02:53:10;12.37;;;9.03;;
18334;SDS011;9293;49.524;10.964;2022-11-15T02:55:59;13.43;;;9.32;;
18334;SDS011;9293;49.524;10.964;2022-11-15T02:58:48;12.52;;;9.70;;
18334;SDS011;9293;49.524;10.964;2022-11-15T03:02:03;11.95;;;8.40;;
18334;SDS011;9293;49.524;10.964;2022-11-15T03:08:02;17.02;;;11.25;;
18334;SDS011;9293;49.524;10.964;2022-11-15T03:11:26;16.20;;;10.77;;
18334;SDS011;9293;49.524;10.964;2022-11-15T03:14:20;12.02;;;9.75;;
18334;SDS011;9293;49.524;10.964;2022-11-15T03:20:03;14.27;;;10.75;;
18334;SDS011;9293;49.524;10.964;2022-11-15T03:22:51;12.13;;;9.10;;
18334;SDS011;9293;49.524;10.964;2022-11-15T03:25:42;11.48;;;8.82;;
18334;SDS011;9293;49.524;10.964;2022-11-15T03:28:50;13.73;;;10.10;;
18334;SDS011;9293;49.524;10.964;2022-11-15T03:32:20;12.70;;;9.32;;
18334;SDS011;9293;49.524;10.964;2022-11-15T03:35:23;13.48;;;9.55;;
18334;SDS011;9293;49.524;10.964;2022-11-15T03:41:30;14.35;;;10.93;;
18334;SDS011;9293;49.524;10.964;2022-11-15T03:47:30;14.45;;;10.63;;
18334;SDS011;9293;49.524;10.964;2022-11-15T03:50:22;16.45;;;10.57;;
18334;SDS011;9293;49.524;10.964;2022-11-15T03:53:10;18.77;;;12.13;;
18334;SDS011;9293;49.524;10.964;2022-11-15T03:56:02;14.15;;;10.75;;
18334;SDS011;9293;49.524;10.964;2022-11-15T03:58:49;16.55;;;11.38;;
18334;SDS011;9293;49.524;10.964;2022-11-15T04:01:35;14.32;;;10.68;;
18334;SDS011;9293;49.524;10.964;2022-11-15T04:04:22;16.23;;;11.30;;
18334;SDS011;9293;49.524;10.964;2022-11-15T04:07:09;12.85;;;9.73;;
18334;SDS011;9293;49.524;10.964;2022-11-15T04:09:56;20.67;;;15.43;;
18334;SDS011;9293;49.524;10.964;2022-11-15T04:12:48;13.23;;;10.48;;
18334;SDS011;9293;49.524;10.964;2022-11-15T04:15:34;13.35;;;9.90;;
18334;SDS011;9293;49.524;10.964;2022-11-15T04:18:21;15.27;;;10.73;;
18334;SDS011;9293;49.524;10.964;2022-11-15T04:21:08;15.98;;;10.48;;
18334;SDS011;9293;49.524;10.964;2022-11-15T04:24:13;15.23;;;10.35;;
18334;SDS011;9293;49.524;10.964;2022-11-15T04:27:00;13.13;;;9.18;;
18334;SDS011;9293;49.524;10.964;2022-11-15T04:29:47;16.67;;;11.60;;
18334;SDS011;9293;49.524;10.964;2022-11-15T04:32:33;12.27;;;10.07;;
18334;SDS011;9293;49.524;10.964;2022-11-15T04:35:20;13.00;;;9.93;;
18334;SDS011;9293;49.524;10.964;2022-11-15T04:38:07;14.80;;;9.57;;
18334;SDS011;9293;49.524;10.964;2022-11-15T04:40:55;18.73;;;10.23;;
18334;SDS011;9293;49.524;10.964;2022-11-15T04:43:41;16.27;;;9.52;;
18334;SDS011;9293;49.524;10.964;2022-11-15T04:46:28;12.65;;;9.10;;
18334;SDS011;9293;49.524;10.964;2022-11-15T04:49:14;15.38;;;9.60;;
18334;SDS011;9293;49.524;10.964;2022-11-15T04:52:02;14.13;;;9.65;;
18334;SDS011;9293;49.524;10.964;2022-11-15T04:54:49;13.50;;;9.07;;
18334;SDS011;9293;49.524;10.964;2022-11-15T04:57:36;14.98;;;10.20;;
18334;SDS011;9293;49.524;10.964;2022-11-15T05:00:23;13.75;;;10.35;;
18334;SDS011;9293;49.524;10.964;2022-11-15T05:03:09;13.13;;;10.07;;
18334;SDS011;9293;49.524;10.964;2022-11-15T05:06:15;14.15;;;10.52;;
18334;SDS011;9293;49.524;10.964;2022-11-15T05:09:02;15.10;;;10.90;;
18334;SDS011;9293;49.524;10.964;2022-11-15T05:11:48;15.07;;;10.50;;
18334;SDS011;9293;49.524;10.964;2022-11-15T05:14:35;12.93;;;10.55;;
18334;SDS011;9293;49.524;10.964;2022-11-15T05:17:22;15.65;;;10.45;;
18334;SDS011;9293;49.524;10.964;2022-11-15T05:20:09;14.25;;;10.50;;
18334;SDS011;9293;49.524;10.964;2022-11-15T05:22:57;18.13;;;12.25;;
18334;SDS011;9293;49.524;10.964;2022-11-15T05:25:43;14.57;;;10.73;;
18334;SDS011;9293;49.524;10.964;2022-11-15T05:28:30;14.07;;;10.32;;
18334;SDS011;9293;49.524;10.964;2022-11-15T05:31:21;15.88;;;11.82;;
18334;SDS011;9293;49.524;10.964;2022-11-15T05:34:07;15.48;;;10.55;;
18334;SDS011;9293;49.524;10.964;2022-11-15T05:36:54;16.13;;;10.20;;
18334;SDS011;9293;49.524;10.964;2022-11-15T05:39:41;13.70;;;10.77;;
18334;SDS011;9293;49.524;10.964;2022-11-15T05:42:31;14.80;;;11.00;;
18334;SDS011;9293;49.524;10.964;2022-11-15T05:45:18;16.75;;;11.07;;
18334;SDS011;9293;49.524;10.964;2022-11-15T05:48:10;14.60;;;9.82;;
18334;SDS011;9293;49.524;10.964;2022-11-15T05:50:57;14.60;;;10.23;;
18334;SDS011;9293;49.524;10.964;2022-11-15T05:53:45;13.52;;;10.50;;
18334;SDS011;9293;49.524;10.964;2022-11-15T05:56:32;15.10;;;10.43;;
18334;SDS011;9293;49.524;10.964;2022-11-15T05:59:19;14.43;;;9.93;;
18334;SDS011;9293;49.524;10.964;2022-11-15T06:02:06;16.60;;;10.82;;
18334;SDS011;9293;49.524;10.964;2022-11-15T06:04:52;17.13;;;10.85;;
18334;SDS011;9293;49.524;10.964;2022-11-15T06:07:39;14.35;;;9.98;;
18334;SDS011;9293;49.524;10.964;2022-11-15T06:10:27;16.80;;;11.07;;
18334;SDS011;9293;49.524;10.964;2022-11-15T06:13:13;17.45;;;11.07;;
18334;SDS011;9293;49.524;10.964;2022-11-15T06:16:00;14.38;;;10.63;;
18334;SDS011;9293;49.524;10.964;2022-11-15T06:18:47;14.32;;;10.30;;
18334;SDS011;9293;49.524;10.964;2022-11-15T06:21:34;16.90;;;11.90;;
18334;SDS011;9293;49.524;10.964;2022-11-15T06:24:21;18.88;;;12.00;;
18334;SDS011;9293;49.524;10.964;2022-11-15T06:27:16;15.60;;;10.70;;
18334;SDS011;9293;49.524;10.964;2022-11-15T06:30:06;17.33;;;12.20;;
18334;SDS011;9293;49.524;10.964;2022-11-15T06:33:03;18.58;;;12.07;;
18334;SDS011;9293;49.524;10.964;2022-11-15T06:35:50;17.42;;;12.50;;
18334;SDS011;9293;49.524;10.964;2022-11-15T06:38:37;21.83;;;12.18;;
18334;SDS011;9293;49.524;10.964;2022-11-15T06:41:24;18.33;;;11.77;;
18334;SDS011;9293;49.524;10.964;2022-11-15T06:44:11;18.58;;;11.50;;
18334;SDS011;9293;49.524;10.964;2022-11-15T06:46:57;16.25;;;11.65;;
18334;SDS011;9293;49.524;10.964;2022-11-15T06:49:44;16.23;;;11.48;;
18334;SDS011;9293;49.524;10.964;2022-11-15T06:52:31;18.30;;;12.85;;
18334;SDS011;9293;49.524;10.964;2022-11-15T06:55:18;16.10;;;10.98;;
18334;SDS011;9293;49.524;10.964;2022-11-15T06:58:05;18.05;;;11.50;;
18334;SDS011;9293;49.524;10.964;2022-11-15T07:00:51;18.27;;;11.18;;
18334;SDS011;9293;49.524;10.964;2022-11-15T07:03:38;17.98;;;12.35;;
18334;SDS011;9293;49.524;10.964;2022-11-15T07:06:30;15.38;;;11.20;;
18334;SDS011;9293;49.524;10.964;2022-11-15T07:09:17;16.77;;;11.68;;
18334;SDS011;9293;49.524;10.964;2022-11-15T07:12:04;18.92;;;11.63;;
18334;SDS011;9293;49.524;10.964;2022-11-15T07:14:52;15.10;;;11.75;;
18334;SDS011;9293;49.524;10.964;2022-11-15T07:17:39;16.55;;;10.70;;
18334;SDS011;9293;49.524;10.964;2022-11-15T07:20:25;15.30;;;11.15;;
18334;SDS011;9293;49.524;10.964;2022-11-15T07:23:12;14.20;;;11.43;;
18334;SDS011;9293;49.524;10.964;2022-11-15T07:25:58;18.98;;;12.80;;
18334;SDS011;9293;49.524;10.964;2022-11-15T07:28:54;20.65;;;13.43;;
18334;SDS011;9293;49.524;10.964;2022-11-15T07:31:42;17.80;;;12.27;;
18334;SDS011;9293;49.524;10.964;2022-11-15T07:34:29;13.75;;;9.85;;
18334;SDS011;9293;49.524;10.964;2022-11-15T07:37:15;14.38;;;8.77;;
18334;SDS011;9293;49.524;10.964;2022-11-15T07:40:02;10.05;;;7.10;;
18334;SDS011;9293;49.524;10.964;2022-11-15T07:42:49;13.82;;;8.73;;
18334;SDS011;9293;49.524;10.964;2022-11-15T07:45:42;13.60;;;8.20;;
18334;SDS011;9293;49.524;10.964;2022-11-15T07:48:30;12.15;;;7.32;;
18334;SDS011;9293;49.524;10.964;2022-11-15T07:51:28;11.88;;;7.25;;
18334;SDS011;9293;49.524;10.964;2022-11-15T07:54:14;8.05;;;7.25;;
18334;SDS011;9293;49.524;10.964;2022-11-15T07:57:00;13.20;;;8.52;;
18334;SDS011;9293;49.524;10.964;2022-11-15T07:59:51;10.30;;;7.95;;
18334;SDS011;9293;49.524;10.964;2022-11-15T08:02:37;12.52;;;7.80;;
18334;SDS011;9293;49.524;10.964;2022-11-15T08:05:24;12.57;;;8.05;;
18334;SDS011;9293;49.524;10.964;2022-11-15T08:08:11;13.48;;;8.23;;
18334;SDS011;9293;49.524;10.964;2022-11-15T08:10:58;11.80;;;8.02;;
18334;SDS011;9293;49.524;10.964;2022-11-15T08:13:44;14.27;;;7.88;;
18334;SDS011;9293;49.524;10.964;2022-11-15T08:16:31;13.90;;;7.88;;
18334;SDS011;9293;49.524;10.964;2022-11-15T08:19:20;12.20;;;8.32;;
18334;SDS011;9293;49.524;10.964;2022-11-15T08:22:07;15.98;;;8.38;;
18334;SDS011;9293;49.524;10.964;2022-11-15T08:24:53;14.20;;;8.45;;
18334;SDS011;9293;49.524;10.964;2022-11-15T08:27:40;12.02;;;8.60;;
18334;SDS011;9293;49.524;10.964;2022-11-15T08:30:27;12.02;;;7.82;;
18334;SDS011;9293;49.524;10.964;2022-11-15T08:33:13;12.15;;;7.88;;
18334;SDS011;9293;49.524;10.964;2022-11-15T08:36:00;12.18;;;8.20;;
18334;SDS011;9293;49.524;10.964;2022-11-15T08:38:47;11.18;;;7.65;;
18334;SDS011;9293;49.524;10.964;2022-11-15T08:41:34;12.88;;;7.68;;
18334;SDS011;9293;49.524;10.964;2022-11-15T08:44:23;10.15;;;6.90;;
18334;SDS011;9293;49.524;10.964;2022-11-15T08:47:13;10.93;;;7.28;;
18334;SDS011;9293;49.524;10.964;2022-11-15T08:50:02;9.93;;;6.82;;
18334;SDS011;9293;49.524;10.964;2022-11-15T08:52:49;13.25;;;7.28;;
18334;SDS011;9293;49.524;10.964;2022-11-15T08:55:36;12.73;;;7.35;;
18334;SDS011;9293;49.524;10.964;2022-11-15T08:58:24;9.77;;;7.30;;
18334;SDS011;9293;49.524;10.964;2022-11-15T09:01:17;10.68;;;7.05;;
18334;SDS011;9293;49.524;10.964;2022-11-15T09:04:05;9.30;;;6.68;;
18334;SDS011;9293;49.524;10.964;2022-11-15T09:06:51;8.75;;;6.00;;
18334;SDS011;9293;49.524;10.964;2022-11-15T09:09:42;13.40;;;7.05;;
18334;SDS011;9293;49.524;10.964;2022-11-15T09:12:28;9.35;;;6.55;;
18334;SDS011;9293;49.524;10.964;2022-11-15T09:15:15;9.77;;;6.95;;
18334;SDS011;9293;49.524;10.964;2022-11-15T09:18:02;11.30;;;7.78;;
18334;SDS011;9293;49.524;10.964;2022-11-15T09:20:49;7.30;;;6.40;;
18334;SDS011;9293;49.524;10.964;2022-11-15T09:23:35;8.32;;;6.60;;
18334;SDS011;9293;49.524;10.964;2022-11-15T09:26:23;6.82;;;5.95;;
18334;SDS011;9293;49.524;10.964;2022-11-15T09:29:10;8.32;;;6.70;;
18334;SDS011;9293;49.524;10.964;2022-11-15T09:31:57;7.78;;;6.38;;
18334;SDS011;9293;49.524;10.964;2022-11-15T09:34:43;8.60;;;6.55;;
18334;SDS011;9293;49.524;10.964;2022-11-15T09:37:31;8.02;;;6.55;;
18334;SDS011;9293;49.524;10.964;2022-11-15T09:40:18;9.45;;;6.50;;
18334;SDS011;9293;49.524;10.964;2022-11-15T09:43:15;14.10;;;7.43;;
18334;SDS011;9293;49.524;10.964;2022-11-15T09:49:58;12.52;;;7.13;;
18334;SDS011;9293;49.524;10.964;2022-11-15T09:52:32;12.52;;;7.05;;
18334;SDS011;9293;49.524;10.964;2022-11-15T09:55:02;12.02;;;6.78;;
18334;SDS011;9293;49.524;10.964;2022-11-15T09:57:33;12.27;;;7.28;;
18334;SDS011;9293;49.524;10.964;2022-11-15T10:00:22;8.80;;;6.88;;
18334;SDS011;9293;49.524;10.964;2022-11-15T10:03:16;9.57;;;5.68;;
18334;SDS011;9293;49.524;10.964;2022-11-15T10:05:57;15.52;;;5.88;;
18334;SDS011;9293;49.524;10.964;2022-11-15T10:08:40;8.50;;;5.60;;
18334;SDS011;9293;49.524;10.964;2022-11-15T10:11:19;9.45;;;5.47;;
18334;SDS011;9293;49.524;10.964;2022-11-15T10:22:40;8.88;;;5.00;;
18334;SDS011;9293;49.524;10.964;2022-11-15T10:25:17;5.70;;;4.70;;
18334;SDS011;9293;49.524;10.964;2022-11-15T10:27:57;7.03;;;4.97;;
18334;SDS011;9293;49.524;10.964;2022-11-15T10:30:44;10.02;;;5.40;;
18334;SDS011;9293;49.524;10.964;2022-11-15T10:41:17;7.18;;;4.60;;
18334;SDS011;9293;49.524;10.964;2022-11-15T10:44:02;6.20;;;4.78;;
18334;SDS011;9293;49.524;10.964;2022-11-15T10:46:34;6.50;;;4.85;;
18334;SDS011;9293;49.524;10.964;2022-11-15T10:49:17;7.85;;;4.97;;
18334;SDS011;9293;49.524;10.964;2022-11-15T10:51:59;5.65;;;4.72;;
18334;SDS011;9293;49.524;10.964;2022-11-15T10:57:22;6.00;;;3.78;;
18334;SDS011;9293;49.524;10.964;2022-11-15T11:06:02;8.25;;;3.88;;
18334;SDS011;9293;49.524;10.964;2022-11-15T11:08:30;7.90;;;4.85;;
18334;SDS011;9293;49.524;10.964;2022-11-15T11:11:00;5.50;;;4.35;;
18334;SDS011;9293;49.524;10.964;2022-11-15T11:32:34;4.30;;;3.30;;
18334;SDS011;9293;49.524;10.964;2022-11-15T11:35:25;8.32;;;2.92;;
18334;SDS011;9293;49.524;10.964;2022-11-15T11:49:41;6.03;;;2.80;;
18334;SDS011;9293;49.524;10.964;2022-11-15T11:52:24;3.55;;;2.70;;
18334;SDS011;9293;49.524;10.964;2022-11-15T11:55:31;6.18;;;2.85;;
18334;SDS011;9293;49.524;10.964;2022-11-15T11:58:09;8.38;;;2.90;;
18334;SDS011;9293;49.524;10.964;2022-11-15T12:09:31;3.45;;;2.40;;
18334;SDS011;9293;49.524;10.964;2022-11-15T12:17:37;3.70;;;2.38;;
18334;SDS011;9293;49.524;10.964;2022-11-15T12:20:17;3.67;;;2.50;;
18334;SDS011;9293;49.524;10.964;2022-11-15T12:22:54;5.13;;;2.60;;
18334;SDS011;9293;49.524;10.964;2022-11-15T12:25:28;4.65;;;3.25;;
18334;SDS011;9293;49.524;10.964;2022-11-15T12:31:44;5.30;;;2.70;;
18334;SDS011;9293;49.524;10.964;2022-11-15T12:36:49;4.68;;;3.03;;
18334;SDS011;9293;49.524;10.964;2022-11-15T12:39:18;8.23;;;3.13;;
18334;SDS011;9293;49.524;10.964;2022-11-15T12:42:34;4.43;;;2.50;;
18334;SDS011;9293;49.524;10.964;2022-11-15T12:52:06;5.53;;;2.30;;
18334;SDS011;9293;49.524;10.964;2022-11-15T12:59:52;4.03;;;1.95;;
18334;SDS011;9293;49.524;10.964;2022-11-15T13:04:55;6.38;;;2.13;;
18334;SDS011;9293;49.524;10.964;2022-11-15T13:07:57;4.95;;;2.78;;
18334;SDS011;9293;49.524;10.964;2022-11-15T13:10:32;6.18;;;2.70;;
18334;SDS011;9293;49.524;10.964;2022-11-15T13:13:08;3.75;;;2.50;;
18334;SDS011;9293;49.524;10.964;2022-11-15T13:21:18;5.63;;;2.85;;
18334;SDS011;9293;49.524;10.964;2022-11-15T13:24:17;4.72;;;2.60;;
18334;SDS011;9293;49.524;10.964;2022-11-15T13:26:45;6.40;;;3.05;;
18334;SDS011;9293;49.524;10.964;2022-11-15T13:29:16;5.80;;;3.70;;
18334;SDS011;9293;49.524;10.964;2022-11-15T13:31:46;5.22;;;3.05;;
18334;SDS011;9293;49.524;10.964;2022-11-15T13:39:48;4.13;;;2.33;;
18334;SDS011;9293;49.524;10.964;2022-11-15T13:42:17;4.82;;;2.50;;
18334;SDS011;9293;49.524;10.964;2022-11-15T13:44:56;6.20;;;2.65;;
18334;SDS011;9293;49.524;10.964;2022-11-15T13:47:29;3.30;;;2.28;;
18334;SDS011;9293;49.524;10.964;2022-11-15T13:49:59;6.88;;;2.40;;
18334;SDS011;9293;49.524;10.964;2022-11-15T13:52:44;4.97;;;2.00;;
18334;SDS011;9293;49.524;10.964;2022-11-15T13:55:29;2.78;;;1.77;;
18334;SDS011;9293;49.524;10.964;2022-11-15T13:58:27;5.38;;;2.10;;
18334;SDS011;9293;49.524;10.964;2022-11-15T14:01:04;2.85;;;1.92;;
18334;SDS011;9293;49.524;10.964;2022-11-15T14:03:40;5.10;;;2.03;;
18334;SDS011;9293;49.524;10.964;2022-11-15T14:06:18;4.38;;;2.22;;
18334;SDS011;9293;49.524;10.964;2022-11-15T14:11:37;7.20;;;1.95;;
18334;SDS011;9293;49.524;10.964;2022-11-15T14:14:16;7.45;;;2.20;;
18334;SDS011;9293;49.524;10.964;2022-11-15T14:16:55;3.38;;;2.13;;
18334;SDS011;9293;49.524;10.964;2022-11-15T14:22:13;3.20;;;1.70;;
18334;SDS011;9293;49.524;10.964;2022-11-15T14:27:37;4.80;;;3.78;;
18334;SDS011;9293;49.524;10.964;2022-11-15T14:30:06;6.47;;;2.83;;
18334;SDS011;9293;49.524;10.964;2022-11-15T14:32:45;5.47;;;2.00;;
18334;SDS011;9293;49.524;10.964;2022-11-15T14:35:21;7.43;;;2.67;;
18334;SDS011;9293;49.524;10.964;2022-11-15T14:37:50;3.50;;;1.70;;
18334;SDS011;9293;49.524;10.964;2022-11-15T14:40:20;4.22;;;2.38;;
18334;SDS011;9293;49.524;10.964;2022-11-15T14:42:49;6.10;;;2.92;;
18334;SDS011;9293;49.524;10.964;2022-11-15T14:45:19;8.45;;;3.90;;
18334;SDS011;9293;49.524;10.964;2022-11-15T14:47:48;5.45;;;3.60;;
18334;SDS011;9293;49.524;10.964;2022-11-15T14:50:18;3.83;;;3.00;;
18334;SDS011;9293;49.524;10.964;2022-11-15T14:52:48;6.20;;;2.92;;
18334;SDS011;9293;49.524;10.964;2022-11-15T14:57:51;6.15;;;3.65;;
18334;SDS011;9293;49.524;10.964;2022-11-15T15:00:20;7.45;;;3.20;;
18334;SDS011;9293;49.524;10.964;2022-11-15T15:02:50;6.97;;;3.35;;
18334;SDS011;9293;49.524;10.964;2022-11-15T15:08:03;9.82;;;4.05;;
18334;SDS011;9293;49.524;10.964;2022-11-15T15:10:33;8.30;;;4.05;;
18334;SDS011;9293;49.524;10.964;2022-11-15T15:13:12;6.00;;;3.67;;
18334;SDS011;9293;49.524;10.964;2022-11-15T15:15:47;4.90;;;3.60;;
18334;SDS011;9293;49.524;10.964;2022-11-15T15:18:17;5.22;;;3.50;;
18334;SDS011;9293;49.524;10.964;2022-11-15T15:20:48;5.03;;;3.50;;
18334;SDS011;9293;49.524;10.964;2022-11-15T15:23:34;6.15;;;3.45;;
18334;SDS011;9293;49.524;10.964;2022-11-15T15:26:03;8.43;;;3.47;;
18334;SDS011;9293;49.524;10.964;2022-11-15T15:28:31;6.88;;;4.25;;
18334;SDS011;9293;49.524;10.964;2022-11-15T15:31:00;6.75;;;4.43;;
18334;SDS011;9293;49.524;10.964;2022-11-15T15:33:29;6.43;;;4.20;;
18334;SDS011;9293;49.524;10.964;2022-11-15T15:36:01;6.80;;;4.50;;
18334;SDS011;9293;49.524;10.964;2022-11-15T15:38:33;11.10;;;4.55;;
18334;SDS011;9293;49.524;10.964;2022-11-15T15:41:01;9.57;;;4.90;;
18334;SDS011;9293;49.524;10.964;2022-11-15T15:43:30;9.00;;;5.03;;
18334;SDS011;9293;49.524;10.964;2022-11-15T15:45:59;8.93;;;4.45;;
18334;SDS011;9293;49.524;10.964;2022-11-15T15:48:27;13.38;;;5.82;;
18334;SDS011;9293;49.524;10.964;2022-11-15T15:50:57;8.15;;;5.00;;
18334;SDS011;9293;49.524;10.964;2022-11-15T15:53:25;12.32;;;5.30;;
18334;SDS011;9293;49.524;10.964;2022-11-15T15:55:54;8.57;;;5.30;;
18334;SDS011;9293;49.524;10.964;2022-11-15T15:58:22;11.95;;;6.47;;
18334;SDS011;9293;49.524;10.964;2022-11-15T16:00:51;16.35;;;6.68;;
18334;SDS011;9293;49.524;10.964;2022-11-15T16:03:19;12.23;;;6.53;;
18334;SDS011;9293;49.524;10.964;2022-11-15T16:05:49;12.18;;;6.05;;
18334;SDS011;9293;49.524;10.964;2022-11-15T16:08:22;14.07;;;6.75;;
18334;SDS011;9293;49.524;10.964;2022-11-15T16:10:51;9.77;;;5.60;;
18334;SDS011;9293;49.524;10.964;2022-11-15T16:13:20;8.73;;;5.72;;
18334;SDS011;9293;49.524;10.964;2022-11-15T16:15:49;14.07;;;6.18;;
18334;SDS011;9293;49.524;10.964;2022-11-15T16:18:20;12.00;;;6.72;;
18334;SDS011;9293;49.524;10.964;2022-11-15T16:20:49;12.05;;;6.13;;
18334;SDS011;9293;49.524;10.964;2022-11-15T16:23:19;12.80;;;6.00;;
18334;SDS011;9293;49.524;10.964;2022-11-15T16:25:50;11.80;;;5.43;;
18334;SDS011;9293;49.524;10.964;2022-11-15T16:28:28;13.75;;;5.85;;
18334;SDS011;9293;49.524;10.964;2022-11-15T16:31:10;10.75;;;6.38;;
18334;SDS011;9293;49.524;10.964;2022-11-15T16:33:59;11.15;;;6.38;;
18334;SDS011;9293;49.524;10.964;2022-11-15T16:36:40;11.13;;;6.28;;
18334;SDS011;9293;49.524;10.964;2022-11-15T16:39:19;12.27;;;6.90;;
18334;SDS011;9293;49.524;10.964;2022-11-15T16:42:14;11.57;;;6.60;;
18334;SDS011;9293;49.524;10.964;2022-11-15T16:44:54;14.90;;;6.65;;
18334;SDS011;9293;49.524;10.964;2022-11-15T16:47:22;14.32;;;8.65;;
18334;SDS011;9293;49.524;10.964;2022-11-15T16:49:51;14.45;;;8.35;;
18334;SDS011;9293;49.524;10.964;2022-11-15T16:52:19;14.00;;;9.40;;
18334;SDS011;9293;49.524;10.964;2022-11-15T16:54:47;15.80;;;8.52;;
18334;SDS011;9293;49.524;10.964;2022-11-15T16:57:16;16.17;;;8.32;;
18334;SDS011;9293;49.524;10.964;2022-11-15T16:59:44;17.80;;;9.40;;
18334;SDS011;9293;49.524;10.964;2022-11-15T17:02:12;16.08;;;10.48;;
18334;SDS011;9293;49.524;10.964;2022-11-15T17:04:40;16.27;;;12.05;;
18334;SDS011;9293;49.524;10.964;2022-11-15T17:07:08;21.25;;;10.95;;
18334;SDS011;9293;49.524;10.964;2022-11-15T17:09:37;19.48;;;12.38;;
18334;SDS011;9293;49.524;10.964;2022-11-15T17:12:05;17.10;;;12.25;;
18334;SDS011;9293;49.524;10.964;2022-11-15T17:14:34;20.70;;;13.48;;
18334;SDS011;9293;49.524;10.964;2022-11-15T17:17:02;25.33;;;17.30;;
18334;SDS011;9293;49.524;10.964;2022-11-15T17:19:31;24.38;;;17.77;;
18334;SDS011;9293;49.524;10.964;2022-11-15T17:21:59;27.30;;;18.73;;
18334;SDS011;9293;49.524;10.964;2022-11-15T17:24:27;25.05;;;18.90;;
18334;SDS011;9293;49.524;10.964;2022-11-15T17:26:55;27.08;;;17.10;;
18334;SDS011;9293;49.524;10.964;2022-11-15T17:29:26;27.33;;;15.50;;
18334;SDS011;9293;49.524;10.964;2022-11-15T17:31:55;21.98;;;12.75;;
18334;SDS011;9293;49.524;10.964;2022-11-15T17:34:28;24.00;;;15.88;;
18334;SDS011;9293;49.524;10.964;2022-11-15T17:36:56;25.83;;;15.45;;
18334;SDS011;9293;49.524;10.964;2022-11-15T17:39:24;28.30;;;16.30;;
18334;SDS011;9293;49.524;10.964;2022-11-15T17:41:52;34.45;;;20.35;;
18334;SDS011;9293;49.524;10.964;2022-11-15T17:44:20;27.17;;;18.48;;
18334;SDS011;9293;49.524;10.964;2022-11-15T17:46:49;29.08;;;18.70;;
18334;SDS011;9293;49.524;10.964;2022-11-15T17:49:17;26.10;;;16.52;;
18334;SDS011;9293;49.524;10.964;2022-11-15T17:51:45;31.13;;;17.65;;
18334;SDS011;9293;49.524;10.964;2022-11-15T17:54:15;23.10;;;14.05;;
18334;SDS011;9293;49.524;10.964;2022-11-15T17:56:43;22.08;;;12.30;;
18334;SDS011;9293;49.524;10.964;2022-11-15T17:59:11;20.48;;;12.32;;
18334;SDS011;9293;49.524;10.964;2022-11-15T18:01:47;18.38;;;12.40;;
18334;SDS011;9293;49.524;10.964;2022-11-15T18:04:17;20.13;;;12.73;;
18334;SDS011;9293;49.524;10.964;2022-11-15T18:06:46;21.40;;;12.88;;
18334;SDS011;9293;49.524;10.964;2022-11-15T18:09:14;16.05;;;11.98;;
18334;SDS011;9293;49.524;10.964;2022-11-15T18:11:42;18.27;;;12.40;;
18334;SDS011;9293;49.524;10.964;2022-11-15T18:14:13;16.73;;;11.02;;
18334;SDS011;9293;49.524;10.964;2022-11-15T18:16:42;20.10;;;13.25;;
18334;SDS011;9293;49.524;10.964;2022-11-15T18:19:10;18.88;;;11.77;;
18334;SDS011;9293;49.524;10.964;2022-11-15T18:21:43;21.23;;;12.57;;
18334;SDS011;9293;49.524;10.964;2022-11-15T18:24:25;16.23;;;11.55;;
18334;SDS011;9293;49.524;10.964;2022-11-15T18:27:02;19.58;;;11.40;;
18334;SDS011;9293;49.524;10.964;2022-11-15T18:29:31;16.05;;;11.13;;
18334;SDS011;9293;49.524;10.964;2022-11-15T18:32:02;14.25;;;9.13;;
18334;SDS011;9293;49.524;10.964;2022-11-15T18:34:37;14.75;;;8.38;;
18334;SDS011;9293;49.524;10.964;2022-11-15T18:37:06;14.43;;;9.00;;